Terminal Aerodrome Forecast
Issued by NWS Sioux Falls, SD

Home | Current Version | Previous Version | Text Only | Print | Product List | Glossary On
Versions: 1 2 3 4 5 6 7 8 9 10 11 12 13 14 15
849
FTUS43 KFSD 210520
TAFHON
TAF
KHON 210520Z 2106/2206 14006KT P6SM VCSH OVC050
     FM211100 13009KT P6SM BKN070
     FM220200 14007KT P6SM SCT140=

USA.gov is the U.S. government's official web portal to all federal, state and local government web resources and services.